Time;durP1;ratioP1;P1;durP2;ratioP2;P2;SDS_P1;SDS_P2;PMS_P1;PMS_P2;Temp;Humidity;BMP_temperature;BMP_pressure;BME280_temperature;BME280_humidity;BME280_pressure;Samples;Min_cycle;Max_cycle;Signal;HPM_P1;HPM_P2
2023/10/01 00:01:31;;;;;;;14.23;7.57;;;;;;;10.63;100.00;102309.63;5032277;28;20029;-87
2023/10/01 00:03:56;;;;;;;11.53;7.30;;;;;;;10.63;100.00;102307.75;5032434;28;20025;-87
2023/10/01 00:06:24;;;;;;;13.40;6.93;;;;;;;10.62;100.00;102311.47;5032712;28;20085;-87
2023/10/01 00:08:50;;;;;;;16.05;7.15;;;;;;;10.56;100.00;102315.06;5030045;28;20029;-87
2023/10/01 00:11:15;;;;;;;12.43;7.53;;;;;;;10.60;100.00;102325.13;5031071;28;20103;-87
2023/10/01 00:13:40;;;;;;;13.02;7.20;;;;;;;10.57;100.00;102319.38;5031566;28;20100;-87
2023/10/01 00:16:06;;;;;;;12.70;7.37;;;;;;;10.57;100.00;102319.38;5032494;28;20488;-87
2023/10/01 00:18:32;;;;;;;12.77;7.43;;;;;;;10.60;100.00;102318.91;5031842;28;20420;-87
2023/10/01 00:20:58;;;;;;;13.37;6.87;;;;;;;10.60;100.00;102326.97;5031912;28;20030;-87
2023/10/01 00:23:23;;;;;;;15.05;7.72;;;;;;;10.62;100.00;102318.72;5030758;28;20551;-87
2023/10/01 00:25:49;;;;;;;12.37;7.30;;;;;;;10.57;100.00;102322.06;5031309;28;20030;-87
2023/10/01 00:28:14;;;;;;;11.70;6.93;;;;;;;10.52;100.00;102317.34;5030866;28;20053;-87
2023/10/01 00:30:39;;;;;;;12.23;7.90;;;;;;;10.60;100.00;102329.66;5030230;28;20276;-87
2023/10/01 00:33:06;;;;;;;13.63;8.30;;;;;;;10.60;100.00;102321.59;5034723;28;20446;-87
2023/10/01 00:35:31;;;;;;;11.15;7.35;;;;;;;10.63;100.00;102317.69;5032737;28;20014;-87
2023/10/01 00:37:57;;;;;;;12.03;7.93;;;;;;;10.67;100.00;102314.31;5031983;28;20034;-87
2023/10/01 00:40:22;;;;;;;12.43;7.38;;;;;;;10.69;100.00;102322.97;5022116;28;20495;-88
2023/10/01 00:42:48;;;;;;;12.30;7.40;;;;;;;10.69;100.00;102306.88;5026868;28;20487;-89
2023/10/01 00:45:15;;;;;;;16.07;8.13;;;;;;;10.71;100.00;102310.16;5031904;28;20044;-89
2023/10/01 00:47:45;;;;;;;12.30;7.30;;;;;;;10.77;100.00;102313.00;5032233;28;20029;-88
2023/10/01 00:50:16;;;;;;;12.32;7.57;;;;;;;10.78;100.00;102311.94;5031842;28;20025;-87
2023/10/01 00:52:42;;;;;;;10.90;6.65;;;;;;;10.73;100.00;102297.38;5025603;28;20036;-88
2023/10/01 00:55:09;;;;;;;13.10;6.88;;;;;;;10.73;100.00;102297.38;5030984;28;20025;-87
2023/10/01 00:57:38;;;;;;;11.60;7.23;;;;;;;10.74;100.00;102290.97;5016451;28;20057;-88
2023/10/01 01:00:12;;;;;;;14.45;7.18;;;;;;;10.77;100.00;102295.03;5029339;28;20029;-87
2023/10/01 01:02:38;;;;;;;14.52;7.57;;;;;;;10.78;100.00;102295.84;5026758;28;20021;-89
2023/10/01 01:05:20;;;;;;;13.55;7.45;;;;;;;10.73;100.00;102286.63;5020679;28;20049;-87
2023/10/01 01:07:47;;;;;;;13.02;7.35;;;;;;;10.73;100.00;102281.28;5010069;28;20481;-88
2023/10/01 01:10:16;;;;;;;13.63;6.78;;;;;;;10.73;100.00;102275.06;5021872;28;20026;-88
2023/10/01 01:12:45;;;;;;;12.60;6.70;;;;;;;10.72;100.00;102270.75;5023205;28;20025;-88
2023/10/01 01:15:12;;;;;;;11.27;6.55;;;;;;;10.71;100.00;102267.28;5029019;28;20033;-88
2023/10/01 01:17:38;;;;;;;11.82;6.85;;;;;;;10.72;100.00;102268.06;5019797;28;20033;-88
2023/10/01 01:20:09;;;;;;;10.57;6.33;;;;;;;10.69;100.00;102272.03;5011516;28;20034;-88
2023/10/01 01:22:36;;;;;;;13.80;6.68;;;;;;;10.69;100.00;102265.84;5026153;28;20026;-88
2023/10/01 01:25:10;;;;;;;14.13;6.97;;;;;;;10.73;100.00;102267.03;5035946;28;20021;-89
2023/10/01 01:27:36;;;;;;;15.13;6.38;;;;;;;10.73;100.00;102269.72;5036709;28;20026;-87
2023/10/01 01:30:07;;;;;;;11.70;6.38;;;;;;;10.66;100.00;102269.78;5036019;28;20029;-88
2023/10/01 01:32:32;;;;;;;9.60;6.20;;;;;;;10.63;100.00;102261.38;5037519;28;20031;-88
2023/10/01 01:35:02;;;;;;;9.85;6.10;;;;;;;10.66;100.00;102271.66;5035268;28;20030;-88
2023/10/01 01:37:36;;;;;;;16.38;6.68;;;;;;;10.62;100.00;102268.59;5028419;28;20033;-89
2023/10/01 01:40:09;;;;;;;10.33;5.97;;;;;;;10.61;100.00;102253.56;5024939;28;20073;-89
2023/10/01 01:42:35;;;;;;;11.30;5.63;;;;;;;10.58;100.00;102257.50;5020749;28;20292;-89
2023/10/01 01:45:18;;;;;;;11.15;5.80;;;;;;;10.59;100.00;102256.47;5027926;28;20034;-88
2023/10/01 01:47:44;;;;;;;9.55;5.63;;;;;;;10.54;100.00;102252.81;5023960;28;20456;-89
2023/10/01 01:50:21;;;;;;;13.70;6.40;;;;;;;10.58;100.00;102248.66;5020285;28;20044;-88
2023/10/01 01:52:47;;;;;;;10.90;5.73;;;;;;;10.56;100.00;102245.38;5024493;28;20287;-90
2023/10/01 01:55:23;;;;;;;11.48;5.65;;;;;;;10.66;100.00;102252.91;5030012;28;20040;-89
2023/10/01 01:58:02;;;;;;;8.75;5.50;;;;;;;10.63;100.00;102250.66;5029163;28;20048;-89
2023/10/01 02:00:31;;;;;;;12.95;5.75;;;;;;;10.56;100.00;102242.69;5027937;28;20422;-89
2023/10/01 02:02:59;;;;;;;16.30;5.78;;;;;;;10.57;100.00;102257.75;5030536;28;20030;-89
2023/10/01 02:05:29;;;;;;;12.63;5.60;;;;;;;10.53;100.00;102257.34;5030000;28;20064;-89
2023/10/01 02:07:54;;;;;;;11.75;5.60;;;;;;;10.52;100.00;102249.53;5030815;28;20610;-89
2023/10/01 02:10:20;;;;;;;9.70;5.77;;;;;;;10.50;100.00;102247.06;5029662;28;20029;-89
2023/10/01 02:12:50;;;;;;;11.07;5.35;;;;;;;10.47;100.00;102244.84;5030804;28;20071;-89
2023/10/01 02:15:15;;;;;;;10.30;5.82;;;;;;;10.43;100.00;102241.78;5034975;28;20116;-90
2023/10/01 02:17:41;;;;;;;13.40;6.17;;;;;;;10.46;100.00;102251.25;5030669;28;20057;-89
2023/10/01 02:20:28;;;;;;;11.20;6.27;;;;;;;10.48;100.00;102235.78;5027096;28;20049;-90
2023/10/01 02:22:53;;;;;;;9.75;6.47;;;;;;;10.47;100.00;102231.44;5028395;28;20041;-89
2023/10/01 02:25:36;;;;;;;12.33;6.00;;;;;;;10.52;100.00;102228.09;5030730;28;20038;-89
2023/10/01 02:28:15;;;;;;;10.23;5.68;;;;;;;10.52;100.00;102220.88;5031384;28;20025;-90
2023/10/01 02:30:41;;;;;;;9.73;6.10;;;;;;;10.52;100.00;102226.22;5029732;28;20092;-90
2023/10/01 02:33:18;;;;;;;10.70;5.47;;;;;;;10.51;100.00;102224.59;5032610;28;20021;-89
2023/10/01 02:35:49;;;;;;;13.17;5.80;;;;;;;10.49;100.00;102225.84;5009909;28;20280;-89
2023/10/01 02:41:01;;;;;;;12.70;5.97;;;;;;;10.43;100.00;102223.03;5031328;28;20041;-89
2023/10/01 02:43:35;;;;;;;12.45;5.80;;;;;;;10.46;100.00;102232.50;5032064;28;20108;-90
2023/10/01 02:46:08;;;;;;;9.45;5.22;;;;;;;10.45;100.00;102236.22;5033067;28;20025;-90
2023/10/01 02:48:34;;;;;;;8.52;5.32;;;;;;;10.43;100.00;102238.28;5034839;28;20056;-89
2023/10/01 02:51:14;;;;;;;10.68;5.60;;;;;;;10.43;100.00;102235.63;5030952;28;20025;-90
2023/10/01 02:54:01;;;;;;;9.97;4.97;;;;;;;10.39;100.00;102245.13;5032407;28;20032;-89
2023/10/01 02:56:52;;;;;;;10.43;5.53;;;;;;;10.35;100.00;102236.69;5035208;28;20770;-90
2023/10/01 02:59:19;;;;;;;7.90;5.07;;;;;;;10.31;100.00;102251.56;5034702;28;20044;-89
2023/10/01 03:01:47;;;;;;;9.85;5.03;;;;;;;10.24;100.00;102240.06;5033470;28;20032;-89
2023/10/01 03:04:17;;;;;;;11.52;4.75;;;;;;;10.22;100.00;102237.63;5034777;28;20065;-90
2023/10/01 03:06:55;;;;;;;10.45;5.22;;;;;;;10.22;100.00;102253.72;5051403;28;20049;-89
2023/10/01 03:09:31;;;;;;;11.50;4.95;;;;;;;10.19;100.00;102243.44;5050397;28;20021;-89
2023/10/01 03:14:44;;;;;;;9.88;5.20;;;;;;;10.15;100.00;102236.88;5058465;28;20048;-89
2023/10/01 03:17:17;;;;;;;11.97;5.20;;;;;;;10.18;100.00;102236.44;5047892;28;20093;-88
2023/10/01 03:19:46;;;;;;;12.73;5.77;;;;;;;10.18;100.00;102240.97;5038245;28;20350;-89
2023/10/01 03:22:22;;;;;;;8.95;5.57;;;;;;;10.19;100.00;102229.22;5034696;28;20053;-89
2023/10/01 03:24:48;;;;;;;13.10;6.10;;;;;;;10.23;100.00;102231.25;5034685;28;20026;-89
2023/10/01 03:27:27;;;;;;;10.30;5.57;;;;;;;10.26;100.00;102233.47;5033689;28;20495;-90
2023/10/01 03:30:00;;;;;;;11.63;5.47;;;;;;;10.26;100.00;102232.66;5034487;28;20036;-90
2023/10/01 03:32:27;;;;;;;10.23;5.20;;;;;;;10.32;100.00;102231.78;5033336;28;20029;-89
2023/10/01 03:34:53;;;;;;;11.05;5.32;;;;;;;10.30;100.00;102241.88;5033840;28;20026;-90
2023/10/01 03:37:27;;;;;;;12.85;5.43;;;;;;;10.34;100.00;102232.38;5033979;28;20033;-89
2023/10/01 03:39:57;;;;;;;12.02;5.85;;;;;;;10.34;100.00;102229.69;5034696;28;20068;-89
2023/10/01 03:42:23;;;;;;;10.17;5.37;;;;;;;10.35;100.00;102231.34;5035244;28;20026;-90
2023/10/01 03:47:34;;;;;;;14.77;6.13;;;;;;;10.35;100.00;102228.66;5037518;28;20037;-89
2023/10/01 03:50:00;;;;;;;11.18;5.78;;;;;;;10.34;100.00;102224.34;5048740;28;20025;-90
2023/10/01 03:52:28;;;;;;;10.33;5.63;;;;;;;10.34;100.00;102223.50;5052337;28;20028;-89
2023/10/01 03:55:25;;;;;;;14.88;6.25;;;;;;;10.23;100.00;102215.16;5055999;28;20006;-89
2023/10/01 03:58:05;;;;;;;11.05;5.78;;;;;;;10.28;100.00;102226.03;5057643;28;20021;-90
2023/10/01 04:00:34;;;;;;;9.13;5.43;;;;;;;10.24;100.00;102226.69;5057508;28;20031;-88
2023/10/01 04:03:01;;;;;;;11.90;5.32;;;;;;;10.23;100.00;102225.03;5048441;28;20060;-89
2023/10/01 04:05:37;;;;;;;12.35;6.05;;;;;;;10.24;100.00;102216.81;5034618;28;20021;-89
2023/10/01 04:08:11;;;;;;;10.68;5.78;;;;;;;10.28;100.00;102226.03;5034189;28;20040;-90
2023/10/01 04:10:41;;;;;;;13.80;5.60;;;;;;;10.27;100.00;102235.13;5033478;28;20026;-89
2023/10/01 04:13:20;;;;;;;13.03;6.07;;;;;;;10.23;100.00;102219.69;5032498;28;20029;-89
2023/10/01 04:15:47;;;;;;;14.70;6.20;;;;;;;10.21;100.00;102227.97;5033172;28;20291;-90
2023/10/01 04:20:47;;;;;;;13.52;5.97;;;;;;;10.23;100.00;102223.19;5034578;28;20040;-89
2023/10/01 04:23:29;;;;;;;14.35;6.32;;;;;;;10.26;100.00;102221.94;5032464;28;20021;-89
2023/10/01 04:26:06;;;;;;;14.60;5.85;;;;;;;10.25;100.00;102228.31;5032543;28;20082;-89
2023/10/01 04:28:35;;;;;;;11.23;5.18;;;;;;;10.24;100.00;102232.03;5035198;28;20035;-91
2023/10/01 04:31:03;;;;;;;11.98;5.50;;;;;;;10.24;100.00;102227.53;5046155;28;20040;-89
2023/10/01 04:33:29;;;;;;;11.55;5.55;;;;;;;10.25;100.00;102231.84;5050170;28;20018;-90
2023/10/01 04:35:55;;;;;;;12.53;5.43;;;;;;;10.17;100.00;102226.75;5046882;28;20138;-87
2023/10/01 04:38:32;;;;;;;16.47;5.33;;;;;;;10.20;100.00;102222.84;5050188;28;20284;-89
2023/10/01 04:41:03;;;;;;;11.07;5.35;;;;;;;10.25;100.00;102217.59;5049639;28;20033;-89
2023/10/01 04:43:34;;;;;;;11.20;5.22;;;;;;;10.28;100.00;102215.34;5049714;28;20029;-88
2023/10/01 04:46:01;;;;;;;13.93;5.50;;;;;;;10.29;100.00;102216.13;5024845;28;20480;-89
2023/10/01 04:48:27;;;;;;;14.32;5.80;;;;;;;10.27;100.00;102211.00;5038599;28;20025;-89
2023/10/01 04:50:53;;;;;;;10.83;5.00;;;;;;;10.31;100.00;102219.41;5041075;28;20038;-89
2023/10/01 04:53:22;;;;;;;11.05;5.20;;;;;;;10.31;100.00;102224.78;5040301;28;20116;-89
2023/10/01 04:56:05;;;;;;;13.18;5.90;;;;;;;10.33;100.00;102220.00;5031997;28;20045;-89
2023/10/01 04:58:37;;;;;;;14.63;6.00;;;;;;;10.30;100.00;102217.78;5013027;28;20041;-89
2023/10/01 05:01:07;;;;;;;11.40;5.27;;;;;;;10.32;100.00;102234.44;5030698;28;20288;-89
2023/10/01 05:03:39;;;;;;;14.35;5.47;;;;;;;10.23;100.00;102222.38;5031308;28;20469;-89
2023/10/01 05:06:07;;;;;;;10.77;5.22;;;;;;;10.25;100.00;102231.84;5031317;28;20053;-89
2023/10/01 05:08:38;;;;;;;11.38;5.43;;;;;;;10.21;100.00;102227.16;5031229;28;20032;-89
2023/10/01 05:11:04;;;;;;;9.30;5.00;;;;;;;10.23;100.00;102228.56;5031642;28;20088;-89
2023/10/01 05:13:31;;;;;;;11.88;5.25;;;;;;;10.22;100.00;102231.47;5031468;28;20374;-89
2023/10/01 05:15:56;;;;;;;13.55;5.65;;;;;;;10.18;100.00;102225.72;5029104;28;20041;-89
2023/10/01 05:18:26;;;;;;;12.57;4.80;;;;;;;10.23;100.00;102217.00;5031773;28;20033;-89
2023/10/01 05:21:04;;;;;;;12.93;5.65;;;;;;;10.20;100.00;102212.91;5032315;28;20022;-88
2023/10/01 05:23:29;;;;;;;12.75;5.80;;;;;;;10.22;100.00;102215.41;5031265;28;20021;-89
2023/10/01 05:25:56;;;;;;;15.27;5.23;;;;;;;10.22;100.00;102226.13;5031647;28;20538;-89
2023/10/01 05:28:31;;;;;;;12.70;4.97;;;;;;;10.19;100.00;102232.72;5031712;28;20021;-88
2023/10/01 05:31:00;;;;;;;14.95;4.90;;;;;;;10.15;100.00;102235.03;5029741;28;20104;-87
2023/10/01 05:33:27;;;;;;;11.18;5.40;;;;;;;10.14;100.00;102238.75;5029435;28;20092;-88
2023/10/01 05:35:57;;;;;;;12.20;5.63;;;;;;;10.12;100.00;102232.78;5029913;28;20033;-93
2023/10/01 05:38:26;;;;;;;13.27;5.28;;;;;;;10.10;100.00;102240.22;5028584;28;20436;-91
2023/10/01 05:40:54;;;;;;;13.98;5.03;;;;;;;10.11;100.00;102241.03;5029157;28;20025;-89
2023/10/01 05:43:23;;;;;;;11.00;5.47;;;;;;;10.11;100.00;102241.84;5023390;28;20087;-89
2023/10/01 05:45:52;;;;;;;15.23;5.43;;;;;;;10.13;100.00;102250.50;5011306;28;20045;-89
2023/10/01 05:48:22;;;;;;;11.27;5.20;;;;;;;10.13;100.00;102257.72;5021760;28;20283;-88
2023/10/01 05:50:49;;;;;;;11.82;5.78;;;;;;;10.13;100.00;102255.03;5031059;28;20026;-89
2023/10/01 05:53:17;;;;;;;13.35;5.25;;;;;;;10.14;100.00;102262.84;5030634;28;20092;-88
2023/10/01 05:55:43;;;;;;;11.32;5.65;;;;;;;10.13;100.00;102252.38;5023632;28;20763;-82
2023/10/01 05:58:19;;;;;;;14.30;6.22;;;;;;;10.15;100.00;102243.06;5027942;28;20047;-82
2023/10/01 06:01:13;;;;;;;14.63;6.18;;;;;;;10.21;100.00;102236.00;5028280;28;20025;-82
2023/10/01 06:03:33;;;;;;;13.88;6.47;;;;;;;10.28;100.00;102246.66;5026302;28;20041;-82
2023/10/01 06:06:08;;;;;;;13.90;6.03;;;;;;;10.31;100.00;102235.50;5028337;28;20037;-82
2023/10/01 06:08:45;;;;;;;15.20;6.43;;;;;;;10.36;100.00;102232.97;5026732;28;20299;-82
2023/10/01 06:11:18;;;;;;;15.20;6.20;;;;;;;10.32;100.00;102239.81;5028752;28;20029;-82
2023/10/01 06:13:54;;;;;;;14.68;6.10;;;;;;;10.41;100.00;102235.81;5024756;28;20256;-83
2023/10/01 06:16:24;;;;;;;11.30;6.03;;;;;;;10.47;100.00;102238.66;5029614;28;20079;-83
2023/10/01 06:18:57;;;;;;;11.32;6.32;;;;;;;10.52;100.00;102242.31;5031537;28;20063;-82
2023/10/01 06:21:25;;;;;;;10.13;5.68;;;;;;;10.59;100.00;102240.38;5029676;28;20094;-82
2023/10/01 06:23:58;;;;;;;15.10;6.07;;;;;;;10.69;100.00;102245.22;5030412;28;20025;-81
2023/10/01 06:26:33;;;;;;;11.45;5.75;;;;;;;10.78;100.00;102250.28;5029194;28;20286;-82
2023/10/01 06:29:01;;;;;;;13.97;5.67;;;;;;;10.80;100.00;102250.88;5021285;28;20389;-82
2023/10/01 06:31:27;;;;;;;16.07;6.47;;;;;;;10.86;100.00;102247.31;5031612;28;20291;-81
2023/10/01 06:33:53;;;;;;;11.45;5.90;;;;;;;10.91;100.00;102250.13;5032937;28;20029;-81
2023/10/01 06:36:23;;;;;;;11.73;6.25;;;;;;;10.98;100.00;102245.50;5034186;28;20079;-82
2023/10/01 06:38:53;;;;;;;18.83;7.28;;;;;;;11.05;100.00;102246.22;5032568;28;20033;-82
2023/10/01 06:41:20;;;;;;;15.20;6.13;;;;;;;11.13;100.00;102250.47;5030522;28;20112;-81
2023/10/01 06:43:54;;;;;;;14.23;6.43;;;;;;;11.22;100.00;102256.34;5031217;28;20064;-82
2023/10/01 06:46:22;;;;;;;11.57;6.53;;;;;;;11.27;100.00;102244.91;5032598;28;20033;-82
2023/10/01 06:54:22;;;;;;;15.67;6.10;;;;;;;11.29;100.00;102207.94;5645763;23;20354;-82
2023/10/01 06:56:47;;;;;;;12.02;6.05;;;;;;;11.55;100.00;102227.41;5033135;28;20049;-82
2023/10/01 06:59:13;;;;;;;16.55;6.15;;;;;;;11.65;100.00;102239.22;5036798;28;20047;-82
2023/10/01 07:01:46;;;;;;;13.68;7.03;;;;;;;11.75;100.00;102235.13;5033265;28;20045;-82
2023/10/01 07:04:17;;;;;;;14.52;7.13;;;;;;;11.88;100.00;102242.97;5030956;28;20480;-82
2023/10/01 07:06:44;;;;;;;14.55;6.53;;;;;;;12.03;100.00;102233.69;5030093;28;20021;-82
2023/10/01 07:12:01;;;;;;;12.48;5.75;;;;;;;12.19;100.00;102232.16;5029568;28;20133;-82
2023/10/01 07:14:46;;;;;;;16.10;6.63;;;;;;;12.28;100.00;102246.88;5028932;28;20479;-83
2023/10/01 07:17:18;;;;;;;14.97;6.67;;;;;;;12.37;100.00;102236.59;5026949;28;20651;-82
2023/10/01 07:19:59;;;;;;;13.05;5.88;;;;;;;12.43;100.00;102241.00;5031837;28;20116;-82
2023/10/01 07:22:30;;;;;;;13.25;5.63;;;;;;;12.50;100.00;102244.41;5018385;28;20028;-82
2023/10/01 07:24:55;;;;;;;13.32;6.03;;;;;;;12.52;100.00;102242.28;5029409;28;20034;-82
2023/10/01 07:27:21;;;;;;;16.47;6.90;;;;;;;12.66;100.00;102247.41;5031769;28;20500;-82
2023/10/01 07:29:47;;;;;;;14.10;5.85;;;;;;;12.69;100.00;102247.75;5030203;28;20029;-81
2023/10/01 07:32:13;;;;;;;14.88;5.82;;;;;;;12.74;100.00;102249.75;5036051;28;20752;-81
2023/10/01 07:34:39;;;;;;;17.43;6.77;;;;;;;12.82;100.00;102252.03;5029517;28;20493;-84
2023/10/01 07:37:08;;;;;;;12.27;6.53;;;;;;;12.88;100.00;102253.78;5027915;28;20029;-83
2023/10/01 07:39:35;;;;;;;12.43;6.03;;;;;;;12.96;100.00;102257.19;5029577;28;20026;-84
2023/10/01 07:42:04;;;;;;;13.57;5.22;;;;;;;13.02;100.00;102250.81;5030883;28;20034;-84
2023/10/01 07:44:30;;;;;;;12.48;6.07;;;;;;;13.10;100.00;102246.94;5029290;28;20029;-84
2023/10/01 07:46:55;;;;;;;16.52;5.47;;;;;;;13.22;100.00;102260.34;5030459;28;20046;-84
2023/10/01 07:49:21;;;;;;;13.60;5.77;;;;;;;13.28;100.00;102259.38;5038591;28;20546;-85
2023/10/01 07:51:48;;;;;;;12.73;5.60;;;;;;;13.37;100.00;102265.19;5029806;28;20084;-83
2023/10/01 07:54:22;;;;;;;14.40;6.10;;;;;;;13.40;100.00;102273.63;5029467;28;20057;-83
2023/10/01 07:56:49;;;;;;;13.55;5.70;;;;;;;13.51;100.00;102271.16;5018293;28;20526;-83
2023/10/01 07:59:33;;;;;;;16.13;5.95;;;;;;;13.65;100.00;102279.72;5030496;28;20079;-84
2023/10/01 08:02:19;;;;;;;14.57;5.80;;;;;;;13.70;100.00;102275.22;5031422;28;20194;-86
2023/10/01 08:07:18;;;;;;;14.40;5.70;;;;;;;13.90;100.00;102276.63;5028819;28;20384;-86
2023/10/01 08:09:51;;;;;;;15.90;5.67;;;;;;;13.97;100.00;102266.50;5029687;28;20386;-86
2023/10/01 08:12:19;;;;;;;16.08;6.00;;;;;;;14.02;100.00;102269.28;5031428;28;20021;-86
2023/10/01 08:15:15;;;;;;;15.35;6.15;;;;;;;14.13;100.00;102264.03;5028277;28;20029;-85
2023/10/01 08:17:32;;;;;;;18.83;6.00;;;;;;;14.20;100.00;102262.00;5029413;28;20075;-87
2023/10/01 08:20:14;;;;;;;17.17;6.53;;;;;;;14.24;100.00;102263.94;5029866;28;20503;-86
2023/10/01 08:23:12;;;;;;;14.27;6.05;;;;;;;14.39;100.00;102271.47;5025767;28;20105;-86
2023/10/01 08:25:42;;;;;;;14.95;5.70;;;;;;;14.48;100.00;102277.25;5021304;28;20116;-86
2023/10/01 08:30:43;;;;;;;13.05;6.15;;;;;;;14.67;100.00;102295.84;5030355;28;20029;-85
2023/10/01 08:33:32;;;;;;;15.35;5.95;;;;;;;14.74;100.00;102292.97;5024150;28;20424;-85
2023/10/01 08:36:01;;;;;;;13.88;5.78;;;;;;;14.84;100.00;102290.41;5010116;28;20096;-84
2023/10/01 08:38:36;;;;;;;15.43;5.55;;;;;;;14.92;100.00;102287.28;5028892;28;20357;-85
2023/10/01 08:41:04;;;;;;;15.70;5.88;;;;;;;14.99;100.00;102293.28;5018968;28;20443;-85
2023/10/01 08:43:31;;;;;;;16.92;5.68;;;;;;;15.07;100.00;102294.72;5029839;28;20040;-86
2023/10/01 08:46:08;;;;;;;17.97;6.43;;;;;;;15.20;100.00;102287.31;5026267;28;20025;-88
2023/10/01 08:48:36;;;;;;;16.00;6.28;;;;;;;15.25;100.00;102288.19;5025767;28;20036;-86
2023/10/01 08:51:11;;;;;;;17.10;6.70;;;;;;;15.28;100.00;102282.28;5029434;28;20029;-88
2023/10/01 08:53:42;;;;;;;13.88;6.20;;;;;;;15.37;100.00;102298.84;5027074;28;20556;-86
2023/10/01 08:56:13;;;;;;;14.52;6.55;;;;;;;15.40;100.00;102289.41;5023386;28;20026;-86
2023/10/01 08:58:49;;;;;;;13.10;5.97;;;;;;;15.46;100.00;102274.88;5029241;28;20083;-87
2023/10/01 09:01:19;;;;;;;16.42;6.53;;;;;;;15.60;100.00;102284.19;5028219;28;20397;-86
2023/10/01 09:03:49;;;;;;;15.40;6.22;;;;;;;15.75;100.00;102286.22;5029577;28;20042;-86
2023/10/01 09:06:25;;;;;;;11.53;6.03;;;;;;;15.84;100.00;102289.28;5029297;28;20627;-85
2023/10/01 09:08:54;;;;;;;12.38;6.20;;;;;;;16.01;100.00;102285.66;5026420;28;20022;-86
2023/10/01 09:11:42;;;;;;;15.18;6.03;;;;;;;16.22;100.00;102288.50;5028048;28;20447;-86
2023/10/01 09:14:17;;;;;;;15.20;6.38;;;;;;;16.41;100.00;102299.69;5024930;28;20473;-87
2023/10/01 09:16:49;;;;;;;15.70;6.30;;;;;;;16.57;100.00;102287.06;5024716;28;20382;-88
2023/10/01 09:19:32;;;;;;;12.55;5.75;;;;;;;16.73;100.00;102282.53;5040332;28;20032;-89
2023/10/01 09:22:07;;;;;;;16.15;5.93;;;;;;;16.87;100.00;102285.56;5019231;28;20036;-89
2023/10/01 09:24:39;;;;;;;16.40;6.70;;;;;;;17.04;100.00;102275.38;5028632;28;20497;-90
2023/10/01 09:27:18;;;;;;;15.77;6.18;;;;;;;17.15;100.00;102275.41;5031228;28;20033;-89
2023/10/01 09:29:44;;;;;;;13.82;6.18;;;;;;;17.18;100.00;102272.97;5030307;28;20064;-89
2023/10/01 09:32:19;;;;;;;12.57;6.00;;;;;;;17.13;100.00;102270.25;5031238;28;20457;-89
2023/10/01 09:34:53;;;;;;;13.27;6.27;;;;;;;17.20;100.00;102273.53;5028303;28;20045;-91
2023/10/01 09:37:42;;;;;;;15.13;6.67;;;;;;;17.25;100.00;102259.97;5030612;28;20651;-88
2023/10/01 09:40:42;;;;;;;12.93;5.82;;;;;;;17.32;100.00;102262.44;5030994;28;20025;-89
2023/10/01 09:43:03;;;;;;;16.73;6.53;;;;;;;17.34;100.00;102268.41;5028473;28;20029;-89
2023/10/01 09:45:39;;;;;;;19.45;6.65;;;;;;;17.44;100.00;102272.19;5028848;28;20025;-87
2023/10/01 09:48:09;;;;;;;15.65;6.47;;;;;;;17.50;100.00;102271.13;5030138;28;20029;-88
2023/10/01 09:50:41;;;;;;;14.15;5.75;;;;;;;17.53;100.00;102265.16;5025836;28;20045;-85
2023/10/01 09:53:12;;;;;;;10.27;5.50;;;;;;;17.64;100.00;102261.38;5027844;28;20686;-86
2023/10/01 09:55:51;;;;;;;15.63;6.27;;;;;;;17.70;100.00;102267.59;5029079;28;20373;-86
2023/10/01 09:58:28;;;;;;;15.85;6.07;;;;;;;17.74;100.00;102267.88;5013276;28;20017;-85
2023/10/01 10:01:08;;;;;;;14.48;6.13;;;;;;;17.84;100.00;102267.88;5017559;28;20041;-85
2023/10/01 10:03:37;;;;;;;16.95;6.57;;;;;;;17.89;100.00;102265.19;5023823;28;20504;-85
2023/10/01 10:06:07;;;;;;;16.95;5.88;;;;;;;17.99;100.00;102264.34;5029862;28;20108;-85
2023/10/01 10:08:34;;;;;;;15.20;6.05;;;;;;;18.03;100.00;102257.31;5031469;28;20036;-85
2023/10/01 10:11:02;;;;;;;15.65;5.88;;;;;;;18.07;100.00;102260.31;5037601;28;20032;-86
2023/10/01 10:13:47;;;;;;;15.97;6.13;;;;;;;18.20;100.00;102270.59;5028539;28;20096;-85
2023/10/01 10:16:32;;;;;;;12.18;5.80;;;;;;;18.23;100.00;102266.50;5027579;28;20033;-85
2023/10/01 10:19:08;;;;;;;12.60;5.43;;;;;;;18.32;100.00;102264.84;5010657;28;20025;-87
2023/10/01 10:24:29;;;;;;;14.82;5.80;;;;;;;18.47;100.00;102255.84;5021991;28;20087;-87
2023/10/01 10:27:00;;;;;;;16.10;5.60;;;;;;;18.57;100.00;102253.09;5010161;28;20053;-86
2023/10/01 10:29:46;;;;;;;13.73;5.65;;;;;;;18.69;100.00;102252.78;5026410;28;20071;-87
2023/10/01 10:32:13;;;;;;;15.90;6.03;;;;;;;18.76;100.00;102252.47;5015020;28;20046;-85
2023/10/01 10:34:47;;;;;;;9.82;5.70;;;;;;;18.87;100.00;102254.03;5024361;28;20112;-86
2023/10/01 10:37:35;;;;;;;14.60;6.55;;;;;;;19.01;100.00;102259.72;5030047;28;20025;-86
2023/10/01 10:40:22;;;;;;;14.02;6.00;;;;;;;19.12;100.00;102246.88;5010029;28;20034;-86
2023/10/01 10:42:56;;;;;;;17.50;6.38;;;;;;;19.29;100.00;102248.41;5022233;28;20026;-86
2023/10/01 10:45:42;;;;;;;15.93;6.38;;;;;;;19.38;100.00;102235.81;5032281;28;20048;-86
2023/10/01 10:48:14;;;;;;;15.17;6.13;;;;;;;19.49;100.00;102237.38;5029892;28;20043;-86
2023/10/01 10:50:50;;;;;;;19.23;6.00;;;;;;;19.60;100.00;102242.72;5031743;28;20350;-85
2023/10/01 10:53:25;;;;;;;15.13;5.90;;;;;;;19.74;100.00;102238.22;5030153;28;20366;-86
2023/10/01 10:56:05;;;;;;;13.65;6.15;;;;;;;20.00;100.00;102243.47;5031923;28;20049;-86
2023/10/01 10:58:43;;;;;;;14.55;5.70;;;;;;;20.15;100.00;102236.25;5032071;28;21709;-86
2023/10/01 11:01:16;;;;;;;15.18;6.15;;;;;;;20.12;100.00;102224.84;5469484;23;20058;-86
2023/10/01 11:03:47;;;;;;;15.98;5.80;;;;;;;20.38;100.00;102243.59;4970637;28;20038;-87
2023/10/01 11:06:15;;;;;;;16.67;6.73;;;;;;;20.49;100.00;102240.75;4973035;28;20027;-86
2023/10/01 11:08:50;;;;;;;13.63;6.03;;;;;;;20.59;100.00;102248.81;4980375;28;20041;-87
2023/10/01 11:11:20;;;;;;;12.25;6.30;;;;;;;20.68;100.00;102238.06;4982956;28;20023;-87
2023/10/01 11:13:45;;;;;;;12.80;6.18;;;;;;;20.87;100.00;102244.38;4974599;28;20486;-87
2023/10/01 11:16:16;;;;;;;15.17;6.47;;;;;;;21.03;100.00;102242.22;4963187;28;20105;-87
2023/10/01 11:18:44;;;;;;;15.60;6.70;;;;;;;21.15;99.56;102235.53;4973464;28;20093;-87
2023/10/01 11:21:20;;;;;;;12.98;5.80;;;;;;;21.24;100.00;102233.75;4973153;28;20058;-88
2023/10/01 11:23:47;;;;;;;11.73;6.03;;;;;;;21.36;99.09;102235.22;4974529;28;20474;-87
2023/10/01 11:26:26;;;;;;;14.00;6.23;;;;;;;21.48;97.60;102224.66;4971603;28;20294;-86
2023/10/01 11:29:00;;;;;;;13.15;6.07;;;;;;;21.60;96.08;102221.44;4964445;28;20426;-85
2023/10/01 11:31:31;;;;;;;13.20;6.10;;;;;;;21.75;97.37;102212.19;4974364;28;20117;-87
2023/10/01 11:34:04;;;;;;;14.20;5.82;;;;;;;21.84;93.00;102212.31;4974130;28;20367;-86
2023/10/01 11:36:36;;;;;;;12.68;6.38;;;;;;;22.00;95.27;102215.56;4972631;28;20023;-85
2023/10/01 11:41:43;;;;;;;16.93;6.57;;;;;;;22.26;91.81;102212.34;5689738;23;20301;-88
2023/10/01 11:44:22;;;;;;;12.38;6.53;;;;;;;22.29;93.73;102203.53;5013053;28;20408;-87
2023/10/01 11:46:57;;;;;;;12.98;6.18;;;;;;;22.37;90.09;102200.88;5014015;28;20022;-87
2023/10/01 11:49:34;;;;;;;14.00;6.00;;;;;;;22.35;88.46;102208.59;5012714;28;20532;-87
2023/10/01 11:52:21;;;;;;;14.10;6.32;;;;;;;22.39;90.58;102203.34;5012118;28;20030;-86
2023/10/01 11:54:53;;;;;;;14.68;6.35;;;;;;;22.43;88.67;102204.38;5010584;28;20034;-86
2023/10/01 11:57:22;;;;;;;15.00;7.13;;;;;;;22.46;85.59;102202.94;5012133;28;20034;-86
2023/10/01 11:59:54;;;;;;;13.95;6.43;;;;;;;22.62;88.35;102206.16;5012600;28;20036;-86